Time;durP1;ratioP1;P1;durP2;ratioP2;P2;SDS_P1;SDS_P2;PMS_P1;PMS_P2;Temp;Humidity;BMP_temperature;BMP_pressure;BME280_temperature;BME280_humidity;BME280_pressure;Samples;Min_cycle;Max_cycle;Signal;HPM_P1;HPM_P2
2021/04/21 00:01:58;;;;;;;20.37;13.17;;;;;;;;;;4328563;33;20308;-63
2021/04/21 00:04:26;;;;;;;26.03;12.53;;;;;;;;;;4328271;33;20207;-63
2021/04/21 00:06:52;;;;;;;24.17;14.17;;;;;;;;;;4328944;33;20301;-52
2021/04/21 00:09:20;;;;;;;23.27;14.83;;;;;;;;;;4332602;33;20752;-53
2021/04/21 00:11:48;;;;;;;23.83;14.80;;;;;;;;;;4333213;33;20439;-53
2021/04/21 00:14:17;;;;;;;14.00;9.70;;;;;;;;;;4333210;33;20640;-54
2021/04/21 00:16:44;;;;;;;16.60;10.00;;;;;;;;;;4333422;33;20656;-54
2021/04/21 00:19:12;;;;;;;18.60;11.47;;;;;;;;;;4332983;33;20542;-54
2021/04/21 00:21:40;;;;;;;27.10;14.23;;;;;;;;;;4333351;33;20289;-55
2021/04/21 00:24:08;;;;;;;26.70;12.80;;;;;;;;;;4332855;33;20215;-54
2021/04/21 00:26:36;;;;;;;25.13;14.13;;;;;;;;;;4333419;33;20254;-54
2021/04/21 00:29:05;;;;;;;35.30;18.77;;;;;;;;;;4332829;33;20354;-54
2021/04/21 00:31:31;;;;;;;18.60;10.93;;;;;;;;;;4333217;33;20261;-64
2021/04/21 00:33:59;;;;;;;12.30;8.87;;;;;;;;;;4332657;33;20226;-63
2021/04/21 00:36:26;;;;;;;15.47;10.60;;;;;;;;;;4333606;33;20253;-63
2021/04/21 00:38:54;;;;;;;18.50;11.13;;;;;;;;;;4332911;33;20250;-63
2021/04/21 00:41:42;;;;;;;27.20;15.80;;;;;;;;;;4333046;33;20258;-63
2021/04/21 00:44:33;;;;;;;28.03;16.97;;;;;;;;;;4331718;33;20320;-63
2021/04/21 00:47:05;;;;;;;27.53;17.17;;;;;;;;;;4333231;33;20282;-63
2021/04/21 00:49:36;;;;;;;25.23;16.43;;;;;;;;;;4332854;33;20249;-64
2021/04/21 00:52:11;;;;;;;29.37;18.70;;;;;;;;;;4333044;33;20620;-64
2021/04/21 00:54:55;;;;;;;39.80;19.10;;;;;;;;;;4332856;33;20242;-63
2021/04/21 00:57:39;;;;;;;30.13;18.23;;;;;;;;;;4333013;33;20285;-63
2021/04/21 01:00:17;;;;;;;22.23;15.03;;;;;;;;;;4332750;33;20223;-64
2021/04/21 01:03:02;;;;;;;24.90;14.57;;;;;;;;;;4332843;33;20258;-63
2021/04/21 01:05:31;;;;;;;23.30;15.37;;;;;;;;;;4331984;33;20220;-64
2021/04/21 01:08:00;;;;;;;31.70;18.33;;;;;;;;;;4332463;33;20388;-64
2021/04/21 01:10:33;;;;;;;30.73;18.00;;;;;;;;;;4333107;33;20552;-64
2021/04/21 01:13:01;;;;;;;30.17;16.10;;;;;;;;;;4332608;33;20306;-64
2021/04/21 01:15:28;;;;;;;28.10;15.53;;;;;;;;;;4332714;33;20338;-63
2021/04/21 01:17:56;;;;;;;19.77;13.03;;;;;;;;;;4332701;33;20365;-53
2021/04/21 01:20:38;;;;;;;14.73;11.27;;;;;;;;;;4330756;33;20214;-54
2021/04/21 01:23:29;;;;;;;21.27;14.53;;;;;;;;;;4309385;33;20255;-54
2021/04/21 01:26:09;;;;;;;34.93;19.03;;;;;;;;;;4330552;33;20227;-53
2021/04/21 01:28:41;;;;;;;31.13;19.77;;;;;;;;;;4330438;33;20676;-64
2021/04/21 01:31:10;;;;;;;31.47;19.40;;;;;;;;;;4330512;33;20249;-64
2021/04/21 01:33:37;;;;;;;34.83;17.73;;;;;;;;;;4316925;33;20687;-53
2021/04/21 01:36:04;;;;;;;32.97;18.00;;;;;;;;;;4330709;33;20667;-62
2021/04/21 01:38:31;;;;;;;28.50;17.27;;;;;;;;;;4330286;33;20620;-54
2021/04/21 01:41:01;;;;;;;23.87;16.53;;;;;;;;;;4330130;33;20277;-54
2021/04/21 01:43:33;;;;;;;31.60;17.53;;;;;;;;;;4328941;33;20252;-53
2021/04/21 01:46:02;;;;;;;26.17;15.00;;;;;;;;;;4314363;33;20302;-54
2021/04/21 01:48:31;;;;;;;36.60;17.50;;;;;;;;;;4329581;33;20717;-53
2021/04/21 01:50:59;;;;;;;23.97;13.07;;;;;;;;;;4329974;33;20226;-54
2021/04/21 01:53:36;;;;;;;14.33;10.33;;;;;;;;;;4316314;33;20293;-54
2021/04/21 01:56:12;;;;;;;24.57;12.90;;;;;;;;;;4330025;33;20202;-64
2021/04/21 01:59:33;;;;;;;21.23;13.37;;;;;;;;;;4329693;33;20316;-63
2021/04/21 02:02:03;;;;;;;33.70;19.57;;;;;;;;;;4282810;33;20467;-54
2021/04/21 02:04:59;;;;;;;54.20;22.97;;;;;;;;;;4325812;33;20250;-54
2021/04/21 02:07:53;;;;;;;29.53;17.43;;;;;;;;;;4330352;33;20223;-54
2021/04/21 02:10:24;;;;;;;29.73;18.10;;;;;;;;;;4327901;33;20328;-54
2021/04/21 02:13:08;;;;;;;33.83;19.93;;;;;;;;;;4329935;33;20288;-53
2021/04/21 02:16:01;;;;;;;28.13;17.73;;;;;;;;;;4329626;33;20236;-53
2021/04/21 02:19:01;;;;;;;32.93;17.07;;;;;;;;;;4329301;33;20300;-53
2021/04/21 02:21:30;;;;;;;25.03;17.10;;;;;;;;;;4329431;33;20245;-53
2021/04/21 02:24:37;;;;;;;32.73;21.63;;;;;;;;;;4329021;33;20219;-53
2021/04/21 02:27:17;;;;;;;30.47;20.70;;;;;;;;;;4324519;33;20234;-53
2021/04/21 02:29:53;;;;;;;25.33;17.17;;;;;;;;;;4329325;33;20621;-54
2021/04/21 02:32:25;;;;;;;25.10;16.27;;;;;;;;;;4328724;33;20639;-54
2021/04/21 02:35:05;;;;;;;32.83;19.43;;;;;;;;;;4329356;33;20211;-53
2021/04/21 02:37:56;;;;;;;23.00;16.37;;;;;;;;;;4316462;33;20222;-54
2021/04/21 02:41:02;;;;;;;24.93;17.20;;;;;;;;;;4328097;33;20219;-53
2021/04/21 02:43:30;;;;;;;29.70;17.07;;;;;;;;;;4310768;33;20605;-53
2021/04/21 02:46:15;;;;;;;28.70;17.20;;;;;;;;;;4325785;33;20306;-55
2021/04/21 02:49:00;;;;;;;24.97;14.60;;;;;;;;;;4320577;33;20235;-54
2021/04/21 02:51:34;;;;;;;18.23;12.57;;;;;;;;;;4329397;33;20226;-62
2021/04/21 02:54:11;;;;;;;23.30;12.63;;;;;;;;;;4329164;33;20348;-63
2021/04/21 02:56:45;;;;;;;15.10;10.87;;;;;;;;;;4329169;33;20245;-63
2021/04/21 02:59:16;;;;;;;13.60;10.57;;;;;;;;;;4329018;33;20233;-63
2021/04/21 03:01:48;;;;;;;12.83;10.27;;;;;;;;;;4329440;33;20561;-64
2021/04/21 03:04:14;;;;;;;17.50;12.17;;;;;;;;;;4329067;33;20207;-63
2021/04/21 03:06:47;;;;;;;22.30;15.30;;;;;;;;;;4329375;33;20569;-63
2021/04/21 03:09:16;;;;;;;23.03;14.53;;;;;;;;;;4328697;33;20302;-63
2021/04/21 03:11:42;;;;;;;25.10;16.57;;;;;;;;;;4329338;33;20246;-63
2021/04/21 03:14:14;;;;;;;29.63;17.93;;;;;;;;;;4328680;33;20316;-62
2021/04/21 03:16:44;;;;;;;24.53;16.40;;;;;;;;;;4321569;33;20239;-63
2021/04/21 03:19:12;;;;;;;28.23;17.77;;;;;;;;;;4328635;33;20772;-63
2021/04/21 03:21:42;;;;;;;26.47;17.93;;;;;;;;;;4328892;33;20272;-63
2021/04/21 03:24:18;;;;;;;28.63;17.70;;;;;;;;;;4328550;33;20336;-64
2021/04/21 03:26:47;;;;;;;35.07;23.80;;;;;;;;;;4316003;33;20206;-63
2021/04/21 03:29:23;;;;;;;40.63;21.10;;;;;;;;;;4328485;33;20278;-63
2021/04/21 03:31:49;;;;;;;34.77;22.73;;;;;;;;;;4321043;33;20290;-63
2021/04/21 03:34:17;;;;;;;45.40;24.13;;;;;;;;;;4328717;33;20223;-62
2021/04/21 03:36:43;;;;;;;31.30;22.77;;;;;;;;;;4329183;33;20230;-63
2021/04/21 03:39:12;;;;;;;36.83;23.13;;;;;;;;;;4328284;33;20214;-63
2021/04/21 03:41:39;;;;;;;35.17;21.37;;;;;;;;;;4327585;33;20679;-62
2021/04/21 03:44:05;;;;;;;34.10;22.10;;;;;;;;;;4328035;33;20274;-63
2021/04/21 03:46:33;;;;;;;39.50;21.73;;;;;;;;;;4328526;33;20206;-62
2021/04/21 03:49:00;;;;;;;32.60;21.20;;;;;;;;;;4328579;33;20311;-63
2021/04/21 03:51:27;;;;;;;29.80;22.37;;;;;;;;;;4327364;33;20249;-63
2021/04/21 03:53:54;;;;;;;34.10;22.40;;;;;;;;;;4328211;33;20234;-63
2021/04/21 03:56:24;;;;;;;31.03;20.47;;;;;;;;;;4315068;33;20571;-63
2021/04/21 03:58:52;;;;;;;35.53;24.00;;;;;;;;;;4328104;33;20215;-63
2021/04/21 04:01:21;;;;;;;37.77;23.77;;;;;;;;;;4328399;33;20270;-63
2021/04/21 04:04:01;;;;;;;36.77;24.23;;;;;;;;;;4328309;33;20278;-53
2021/04/21 04:06:35;;;;;;;40.90;25.33;;;;;;;;;;4328344;33;20246;-53
2021/04/21 04:09:06;;;;;;;45.40;29.23;;;;;;;;;;4327863;33;20286;-53
2021/04/21 04:11:53;;;;;;;49.33;27.40;;;;;;;;;;4317884;33;20226;-53
2021/04/21 04:14:24;;;;;;;40.63;27.20;;;;;;;;;;4327727;33;20349;-54
2021/04/21 04:16:55;;;;;;;38.47;25.87;;;;;;;;;;4326934;33;20671;-54
2021/04/21 04:19:22;;;;;;;56.30;27.27;;;;;;;;;;4307894;33;20345;-54
2021/04/21 04:21:54;;;;;;;46.20;29.90;;;;;;;;;;4314602;33;20230;-54
2021/04/21 04:24:22;;;;;;;57.07;35.50;;;;;;;;;;4327575;33;20282;-55
2021/04/21 04:26:48;;;;;;;72.00;45.57;;;;;;;;;;4328230;33;20663;-54
2021/04/21 04:29:14;;;;;;;67.67;45.03;;;;;;;;;;4314425;33;20353;-54
2021/04/21 04:31:40;;;;;;;63.60;43.27;;;;;;;;;;4327928;33;20541;-53
2021/04/21 04:34:09;;;;;;;62.43;41.90;;;;;;;;;;4327823;33;20301;-53
2021/04/21 04:36:39;;;;;;;54.70;36.73;;;;;;;;;;4328216;33;20242;-53
2021/04/21 04:39:07;;;;;;;65.07;37.17;;;;;;;;;;4327622;33;20668;-53
2021/04/21 04:41:33;;;;;;;71.30;39.53;;;;;;;;;;4327877;33;20621;-53
2021/04/21 04:44:01;;;;;;;69.40;37.17;;;;;;;;;;4326498;33;20367;-54
2021/04/21 04:46:28;;;;;;;46.73;29.70;;;;;;;;;;4327473;33;20285;-53
2021/04/21 04:49:13;;;;;;;64.20;37.27;;;;;;;;;;4314268;33;20298;-53
2021/04/21 04:51:43;;;;;;;66.10;40.80;;;;;;;;;;4328008;33;20664;-54
2021/04/21 04:54:11;;;;;;;66.73;41.70;;;;;;;;;;4327392;33;20440;-54
2021/04/21 04:56:37;;;;;;;66.07;46.77;;;;;;;;;;4330585;33;20280;-53
2021/04/21 04:59:05;;;;;;;83.73;49.80;;;;;;;;;;4330263;33;20222;-53
2021/04/21 05:01:49;;;;;;;79.00;46.73;;;;;;;;;;4329470;33;20350;-53
2021/04/21 05:04:18;;;;;;;62.53;36.70;;;;;;;;;;4330540;33;20294;-53
2021/04/21 05:06:51;;;;;;;50.50;27.53;;;;;;;;;;4330604;33;20241;-53
2021/04/21 05:09:19;;;;;;;42.70;27.97;;;;;;;;;;4329898;33;20648;-52
2021/04/21 05:11:46;;;;;;;35.27;25.70;;;;;;;;;;4330959;33;20277;-53
2021/04/21 05:14:16;;;;;;;25.57;19.30;;;;;;;;;;4330419;33;20644;-53
2021/04/21 05:16:56;;;;;;;23.03;16.97;;;;;;;;;;4317255;33;20812;-52
2021/04/21 05:19:41;;;;;;;27.60;16.83;;;;;;;;;;4329861;33;20262;-61
2021/04/21 05:22:32;;;;;;;24.03;14.87;;;;;;;;;;4331156;33;20672;-52
2021/04/21 05:25:33;;;;;;;17.80;13.90;;;;;;;;;;4328731;33;20676;-63
2021/04/21 05:28:37;;;;;;;32.17;18.23;;;;;;;;;;4330332;33;20223;-63
2021/04/21 05:46:37;;;;;;;34.40;22.87;;;;;;;;;;4454421;32;20398;-54
2021/04/21 05:49:40;;;;;;;42.73;23.07;;;;;;;;;;4462531;32;20322;-53
2021/04/21 05:52:36;;;;;;;57.40;34.43;;;;;;;;;;4453776;32;20565;-65
2021/04/21 05:55:32;;;;;;;44.53;28.50;;;;;;;;;;4447608;32;20290;-66
2021/04/21 05:58:34;;;;;;;32.80;24.10;;;;;;;;;;4453466;32;20309;-65
2021/04/21 06:01:02;;;;;;;26.83;18.00;;;;;;;;;;4452803;32;20242;-65
2021/04/21 06:03:31;;;;;;;19.53;13.60;;;;;;;;;;4451013;32;20295;-65
2021/04/21 06:06:04;;;;;;;28.40;13.53;;;;;;;;;;4456291;32;20704;-65
2021/04/21 06:08:31;;;;;;;16.97;13.63;;;;;;;;;;4453521;32;20220;-66
2021/04/21 06:10:57;;;;;;;19.10;13.23;;;;;;;;;;4453069;32;20283;-64
2021/04/21 06:13:30;;;;;;;19.50;12.80;;;;;;;;;;4447299;32;20319;-64
2021/04/21 06:15:56;;;;;;;19.10;13.70;;;;;;;;;;4456738;32;20244;-63
2021/04/21 06:18:22;;;;;;;17.43;11.77;;;;;;;;;;4458795;32;20287;-63
2021/04/21 06:20:48;;;;;;;15.07;10.50;;;;;;;;;;4456211;32;20252;-65
2021/04/21 06:23:15;;;;;;;18.17;13.00;;;;;;;;;;4447565;32;20329;-63
2021/04/21 06:25:49;;;;;;;18.00;11.07;;;;;;;;;;4457478;32;20573;-65
2021/04/21 06:28:18;;;;;;;12.27;10.93;;;;;;;;;;4449067;32;20231;-64
2021/04/21 06:30:46;;;;;;;16.43;12.53;;;;;;;;;;4459946;32;20368;-64
2021/04/21 06:33:13;;;;;;;15.20;11.00;;;;;;;;;;4460798;32;20318;-65
2021/04/21 06:35:40;;;;;;;14.13;10.93;;;;;;;;;;4449025;32;20291;-66
2021/04/21 06:38:07;;;;;;;21.83;11.07;;;;;;;;;;4449606;32;20212;-64
2021/04/21 06:40:34;;;;;;;25.73;11.50;;;;;;;;;;4459809;32;20305;-67
2021/04/21 06:43:01;;;;;;;15.53;10.87;;;;;;;;;;4461763;32;20231;-66
2021/04/21 06:45:29;;;;;;;18.67;12.17;;;;;;;;;;4442769;32;20249;-66
2021/04/21 06:47:56;;;;;;;15.73;12.57;;;;;;;;;;4448404;32;20212;-64
2021/04/21 06:50:31;;;;;;;18.23;13.63;;;;;;;;;;4447529;32;20236;-66
2021/04/21 06:53:06;;;;;;;15.80;13.20;;;;;;;;;;4445894;32;20621;-65
2021/04/21 06:55:33;;;;;;;20.50;13.43;;;;;;;;;;4443499;32;20687;-65
2021/04/21 06:58:00;;;;;;;17.63;11.67;;;;;;;;;;4451000;32;20332;-64
2021/04/21 07:00:27;;;;;;;18.43;9.77;;;;;;;;;;4440965;32;20269;-63
2021/04/21 07:03:01;;;;;;;13.37;8.67;;;;;;;;;;4451090;32;20688;-63
2021/04/21 07:05:37;;;;;;;15.33;8.50;;;;;;;;;;4437610;32;20224;-63
2021/04/21 07:08:14;;;;;;;12.03;9.10;;;;;;;;;;4448896;32;20203;-64
2021/04/21 07:10:50;;;;;;;12.10;7.97;;;;;;;;;;4439636;32;20571;-64
2021/04/21 07:13:36;;;;;;;20.70;8.20;;;;;;;;;;4442815;32;20264;-64
2021/04/21 07:16:09;;;;;;;9.20;5.40;;;;;;;;;;4438298;32;20341;-64
2021/04/21 07:18:38;;;;;;;10.47;7.00;;;;;;;;;;4450624;32;20353;-65
2021/04/21 07:21:06;;;;;;;5.90;4.53;;;;;;;;;;4445035;32;20366;-65
2021/04/21 07:23:33;;;;;;;9.07;5.27;;;;;;;;;;4440743;32;20359;-65
2021/04/21 07:25:58;;;;;;;10.70;5.10;;;;;;;;;;4441043;32;20279;-65
2021/04/21 07:28:25;;;;;;;10.57;6.67;;;;;;;;;;4443358;32;20693;-64
2021/04/21 07:30:52;;;;;;;7.43;5.93;;;;;;;;;;4446382;32;20571;-64
2021/04/21 07:33:39;;;;;;;9.83;6.80;;;;;;;;;;4445663;32;20279;-53
2021/04/21 07:36:19;;;;;;;7.53;5.83;;;;;;;;;;4445261;32;20275;-52
2021/04/21 07:38:48;;;;;;;5.80;3.20;;;;;;;;;;4450830;32;20525;-53
2021/04/21 07:41:15;;;;;;;3.30;3.00;;;;;;;;;;4444526;32;20385;-65
2021/04/21 07:43:43;;;;;;;4.73;3.93;;;;;;;;;;4435448;32;20245;-66
2021/04/21 07:46:15;;;;;;;4.37;3.50;;;;;;;;;;4442914;32;20712;-54
2021/04/21 07:48:43;;;;;;;6.03;2.80;;;;;;;;;;4449266;32;20235;-53
2021/04/21 07:51:15;;;;;;;5.00;3.37;;;;;;;;;;4444838;32;20555;-53
2021/04/21 07:53:55;;;;;;;4.13;3.80;;;;;;;;;;4435027;32;20724;-52
2021/04/21 07:56:22;;;;;;;7.03;3.67;;;;;;;;;;4439791;32;20219;-66
2021/04/21 07:58:49;;;;;;;4.23;3.20;;;;;;;;;;4442614;32;20360;-66
2021/04/21 08:01:15;;;;;;;3.63;3.33;;;;;;;;;;4443093;32;20302;-63
2021/04/21 08:03:41;;;;;;;4.70;3.63;;;;;;;;;;4447562;32;20312;-65
2021/04/21 08:06:06;;;;;;;7.87;3.97;;;;;;;;;;4443464;32;20588;-66
2021/04/21 08:08:36;;;;;;;3.80;3.50;;;;;;;;;;4434547;32;20685;-65
2021/04/21 08:11:04;;;;;;;6.10;3.83;;;;;;;;;;4442800;32;20313;-65
2021/04/21 08:13:48;;;;;;;10.33;3.80;;;;;;;;;;4434421;32;20217;-65
2021/04/21 08:16:30;;;;;;;6.07;3.53;;;;;;;;;;4442546;32;20310;-65
2021/04/21 08:18:56;;;;;;;4.60;3.70;;;;;;;;;;4439531;32;20399;-66
2021/04/21 08:21:33;;;;;;;5.53;4.03;;;;;;;;;;4440288;32;20386;-66
2021/04/21 08:24:14;;;;;;;4.20;3.47;;;;;;;;;;4444843;32;20336;-66
2021/04/21 08:26:52;;;;;;;4.00;2.83;;;;;;;;;;4441558;32;20615;-67
2021/04/21 08:29:18;;;;;;;3.90;2.50;;;;;;;;;;4448176;32;20223;-66
2021/04/21 08:31:46;;;;;;;8.10;3.27;;;;;;;;;;4441879;32;20678;-66
2021/04/21 08:34:12;;;;;;;8.53;3.63;;;;;;;;;;4436470;32;20271;-66
2021/04/21 08:36:41;;;;;;;6.10;4.17;;;;;;;;;;4445870;32;20254;-67
2021/04/21 08:39:07;;;;;;;4.83;3.67;;;;;;;;;;4448112;32;20291;-67
2021/04/21 08:41:36;;;;;;;5.23;3.57;;;;;;;;;;4442391;32;20731;-54
2021/04/21 08:44:02;;;;;;;4.37;3.17;;;;;;;;;;4434134;32;20311;-53
2021/04/21 08:46:28;;;;;;;4.63;3.60;;;;;;;;;;4446822;32;20240;-53
2021/04/21 08:48:54;;;;;;;7.33;4.10;;;;;;;;;;4449573;32;20242;-53
2021/04/21 08:51:22;;;;;;;4.93;3.80;;;;;;;;;;4442678;32;20291;-53
2021/04/21 08:53:54;;;;;;;3.07;2.77;;;;;;;;;;4433559;32;20249;-54
2021/04/21 08:56:21;;;;;;;6.57;3.97;;;;;;;;;;4442429;32;20235;-53
2021/04/21 08:58:49;;;;;;;9.53;3.73;;;;;;;;;;4447446;32;20667;-54
2021/04/21 09:01:16;;;;;;;6.83;3.87;;;;;;;;;;4442574;32;20338;-54
2021/04/21 09:03:43;;;;;;;7.13;3.87;;;;;;;;;;4439593;32;20699;-53
2021/04/21 09:06:09;;;;;;;4.40;3.80;;;;;;;;;;4443169;32;20204;-53
2021/04/21 09:08:38;;;;;;;6.77;3.53;;;;;;;;;;4433942;32;20279;-54
2021/04/21 09:11:04;;;;;;;3.87;3.30;;;;;;;;;;4442437;32;20715;-53
2021/04/21 09:13:30;;;;;;;7.20;3.33;;;;;;;;;;4432693;32;20283;-54
2021/04/21 09:15:57;;;;;;;3.87;3.43;;;;;;;;;;4441344;32;20268;-53
2021/04/21 09:18:27;;;;;;;12.90;7.23;;;;;;;;;;4440162;32;20263;-53
2021/04/21 09:20:54;;;;;;;11.30;8.77;;;;;;;;;;4443942;32;20757;-53
2021/04/21 09:23:20;;;;;;;6.97;4.83;;;;;;;;;;4433260;32;20299;-54
2021/04/21 09:25:53;;;;;;;10.67;4.90;;;;;;;;;;4440436;32;20610;-52
2021/04/21 09:28:20;;;;;;;5.67;2.77;;;;;;;;;;4434768;32;20330;-54
2021/04/21 09:30:58;;;;;;;5.50;2.83;;;;;;;;;;4441581;32;20274;-54
2021/04/21 09:33:28;;;;;;;5.20;2.00;;;;;;;;;;4433935;32;20601;-54
2021/04/21 09:35:53;;;;;;;7.50;3.33;;;;;;;;;;4441188;32;20338;-53
2021/04/21 09:38:26;;;;;;;3.03;2.73;;;;;;;;;;4449190;32;20344;-54
2021/04/21 09:40:54;;;;;;;4.83;2.90;;;;;;;;;;4443998;32;20254;-54
2021/04/21 09:43:22;;;;;;;10.87;3.50;;;;;;;;;;4434075;32;20205;-54
2021/04/21 09:46:18;;;;;;;4.37;3.10;;;;;;;;;;4439905;32;20216;-54
2021/04/21 09:48:46;;;;;;;6.57;3.90;;;;;;;;;;4429527;32;20254;-53
2021/04/21 09:51:15;;;;;;;4.10;3.13;;;;;;;;;;4441803;32;20221;-53
2021/04/21 09:53:49;;;;;;;19.80;12.30;;;;;;;;;;4433261;32;20518;-53
2021/04/21 09:56:17;;;;;;;8.90;4.83;;;;;;;;;;4442008;32;20688;-53
2021/04/21 09:58:44;;;;;;;2.10;1.90;;;;;;;;;;4446728;32;20216;-53
2021/04/21 10:01:18;;;;;;;3.00;2.00;;;;;;;;;;4442843;32;20688;-53
2021/04/21 10:03:44;;;;;;;2.97;2.63;;;;;;;;;;4433669;32;20299;-54
2021/04/21 10:06:22;;;;;;;3.87;2.43;;;;;;;;;;4442028;32;20272;-53
2021/04/21 10:08:48;;;;;;;6.10;2.23;;;;;;;;;;4432256;32;20560;-54
2021/04/21 10:11:13;;;;;;;2.53;2.00;;;;;;;;;;4442271;32;20300;-54
2021/04/21 10:13:48;;;;;;;3.87;2.50;;;;;;;;;;4432521;32;20284;-67
2021/04/21 10:16:14;;;;;;;2.70;2.00;;;;;;;;;;4442351;32;20287;-68
2021/04/21 10:18:42;;;;;;;5.37;1.77;;;;;;;;;;4443048;32;20212;-67
2021/04/21 10:21:08;;;;;;;6.77;3.43;;;;;;;;;;4444009;32;20208;-66
2021/04/21 10:23:34;;;;;;;5.43;2.10;;;;;;;;;;4436687;32;20262;-67
2021/04/21 10:26:07;;;;;;;3.70;2.33;;;;;;;;;;4443479;32;20244;-67
2021/04/21 10:28:34;;;;;;;2.37;2.10;;;;;;;;;;4436554;32;20324;-66
2021/04/21 10:31:04;;;;;;;1.90;1.43;;;;;;;;;;4445837;32;20242;-67
2021/04/21 10:33:31;;;;;;;3.80;2.83;;;;;;;;;;4436112;32;20562;-67
2021/04/21 10:35:57;;;;;;;2.10;1.70;;;;;;;;;;4443915;32;20285;-65
2021/04/21 10:38:27;;;;;;;1.93;1.40;;;;;;;;;;4451367;32;20291;-66
2021/04/21 10:41:38;;;;;;;1.50;1.40;;;;;;;;;;4446349;32;20276;-67
2021/04/21 10:44:15;;;;;;;2.40;1.90;;;;;;;;;;4435927;32;20213;-68
2021/04/21 10:46:57;;;;;;;1.40;1.30;;;;;;;;;;4443198;32;20277;-68
2021/04/21 10:49:50;;;;;;;3.03;2.12;;;;;;;;;;4449764;32;20299;-66
2021/04/21 10:52:36;;;;;;;5.37;3.30;;;;;;;;;;4442341;32;20205;-66
2021/04/21 10:55:22;;;;;;;15.90;8.13;;;;;;;;;;4437162;32;20300;-67
2021/04/21 10:57:55;;;;;;;39.80;20.80;;;;;;;;;;4447503;32;20701;-67
2021/04/21 11:00:31;;;;;;;3.83;3.30;;;;;;;;;;4445847;32;20219;-67
2021/04/21 11:03:24;;;;;;;12.93;7.40;;;;;;;;;;4439379;32;20284;-69
2021/04/21 11:06:02;;;;;;;3.70;2.33;;;;;;;;;;4442866;32;20645;-68
2021/04/21 11:08:54;;;;;;;5.27;3.03;;;;;;;;;;4435820;32;20201;-67
2021/04/21 11:11:36;;;;;;;2.30;2.10;;;;;;;;;;4444713;32;20356;-68
2021/04/21 11:14:03;;;;;;;4.03;3.37;;;;;;;;;;4450433;32;20236;-68
2021/04/21 11:16:31;;;;;;;2.92;1.40;;;;;;;;;;4442656;32;20366;-68
2021/04/21 11:19:17;;;;;;;6.77;5.20;;;;;;;;;;4444733;32;20581;-68
2021/04/21 11:21:43;;;;;;;26.87;20.33;;;;;;;;;;4437024;32;20232;-68
2021/04/21 11:24:10;;;;;;;3.58;2.80;;;;;;;;;;4449472;32;20220;-67
2021/04/21 11:26:42;;;;;;;3.40;1.73;;;;;;;;;;4442001;32;20244;-65
2021/04/21 11:29:13;;;;;;;6.17;2.67;;;;;;;;;;4449866;32;20289;-67
2021/04/21 11:31:45;;;;;;;2.43;2.00;;;;;;;;;;4442192;32;20234;-55
2021/04/21 11:34:13;;;;;;;3.73;2.43;;;;;;;;;;4449159;32;20299;-55
2021/04/21 11:37:00;;;;;;;6.70;2.13;;;;;;;;;;4447156;32;20340;-56
2021/04/21 11:39:44;;;;;;;5.83;1.87;;;;;;;;;;4449198;32;20553;-55
2021/04/21 11:42:28;;;;;;;3.70;2.40;;;;;;;;;;4441860;32;20235;-55
2021/04/21 11:45:03;;;;;;;2.60;1.73;;;;;;;;;;4436686;32;20233;-54
2021/04/21 11:47:45;;;;;;;2.47;1.77;;;;;;;;;;4444453;32;20207;-55
2021/04/21 11:50:17;;;;;;;2.40;2.00;;;;;;;;;;4445258;32;20675;-54
2021/04/21 11:53:08;;;;;;;3.43;2.53;;;;;;;;;;4439573;32;20305;-55
2021/04/21 11:55:57;;;;;;;3.80;2.83;;;;;;;;;;4440236;32;20233;-54
2021/04/21 11:58:36;;;;;;;5.50;2.60;;;;;;;;;;4445631;32;20474;-54
2021/04/21 12:01:11;;;;;;;4.00;2.23;;;;;;;;;;4445319;32;20703;-54
2021/04/21 12:03:39;;;;;;;2.93;1.83;;;;;;;;;;4435000;32;20541;-56
2021/04/21 12:06:18;;;;;;;6.67;2.13;;;;;;;;;;4443334;32;20236;-55
2021/04/21 12:08:49;;;;;;;5.40;2.55;;;;;;;;;;4433715;32;20296;-54
2021/04/21 12:11:23;;;;;;;10.23;4.70;;;;;;;;;;4443239;32;20392;-54
2021/04/21 12:13:48;;;;;;;6.80;2.90;;;;;;;;;;4434834;32;20224;-53
2021/04/21 12:16:22;;;;;;;3.93;2.57;;;;;;;;;;4443462;32;20283;-55
2021/04/21 12:18:53;;;;;;;3.73;1.83;;;;;;;;;;4444673;32;20217;-54
2021/04/21 12:21:18;;;;;;;4.27;2.33;;;;;;;;;;4439498;32;20233;-54
2021/04/21 12:23:46;;;;;;;3.83;2.30;;;;;;;;;;4437354;32;20333;-54
2021/04/21 12:26:31;;;;;;;9.53;2.10;;;;;;;;;;4443888;32;20328;-54
2021/04/21 12:29:09;;;;;;;5.63;2.70;;;;;;;;;;4444929;32;20213;-55
2021/04/21 12:31:35;;;;;;;6.23;2.33;;;;;;;;;;4437952;32;20297;-68
2021/04/21 12:34:04;;;;;;;7.07;2.27;;;;;;;;;;4436757;32;20255;-68
2021/04/21 12:36:35;;;;;;;6.93;3.47;;;;;;;;;;4446985;32;20200;-67
2021/04/21 12:39:12;;;;;;;9.00;2.72;;;;;;;;;;4449866;32;20611;-68
2021/04/21 12:41:46;;;;;;;3.30;2.20;;;;;;;;;;4434754;32;20189;-68
2021/04/21 12:44:22;;;;;;;7.80;2.43;;;;;;;;;;4434064;32;20276;-67
2021/04/21 12:46:50;;;;;;;2.53;1.77;;;;;;;;;;4434089;32;20572;-66
2021/04/21 12:49:37;;;;;;;5.17;2.30;;;;;;;;;;4433100;32;20657;-66
2021/04/21 12:52:09;;;;;;;8.73;3.00;;;;;;;;;;4434186;32;20530;-54
2021/04/21 12:54:49;;;;;;;4.80;2.37;;;;;;;;;;4433690;32;20224;-55
2021/04/21 12:57:15;;;;;;;3.37;2.37;;;;;;;;;;4432959;32;20228;-54
2021/04/21 12:59:45;;;;;;;4.07;2.25;;;;;;;;;;4434398;32;20213;-53
2021/04/21 13:02:15;;;;;;;3.47;1.80;;;;;;;;;;4434112;32;20216;-54
2021/04/21 13:04:42;;;;;;;2.78;2.00;;;;;;;;;;4433104;32;20236;-54
2021/04/21 13:07:12;;;;;;;4.90;2.20;;;;;;;;;;4434032;32;20209;-55
2021/04/21 13:09:37;;;;;;;2.85;1.60;;;;;;;;;;4433802;32;20255;-55
2021/04/21 13:12:05;;;;;;;3.67;2.65;;;;;;;;;;4433794;32;20435;-54
2021/04/21 13:14:38;;;;;;;6.30;2.92;;;;;;;;;;4433285;32;20233;-67
2021/04/21 13:17:05;;;;;;;3.10;2.35;;;;;;;;;;4433614;32;20299;-65
2021/04/21 13:19:32;;;;;;;5.65;2.90;;;;;;;;;;4447174;32;20560;-66
2021/04/21 13:22:23;;;;;;;4.40;3.22;;;;;;;;;;4448000;32;20228;-65
2021/04/21 13:24:52;;;;;;;3.00;2.30;;;;;;;;;;4449000;32;20267;-67
2021/04/21 13:27:23;;;;;;;4.33;2.87;;;;;;;;;;4447706;32;20233;-66
2021/04/21 13:30:02;;;;;;;2.60;1.70;;;;;;;;;;4447872;32;20220;-66
2021/04/21 13:32:28;;;;;;;2.03;1.57;;;;;;;;;;4434270;32;20284;-66
2021/04/21 13:34:54;;;;;;;1.67;1.40;;;;;;;;;;4443360;32;20310;-66
2021/04/21 13:37:20;;;;;;;2.03;1.60;;;;;;;;;;4443469;32;20305;-66
2021/04/21 13:39:59;;;;;;;3.77;1.80;;;;;;;;;;4449486;32;20246;-67
2021/04/21 13:42:26;;;;;;;3.80;2.37;;;;;;;;;;4438620;32;20248;-66
2021/04/21 13:44:52;;;;;;;3.57;1.90;;;;;;;;;;4442597;32;20698;-66
2021/04/21 13:47:18;;;;;;;3.12;1.60;;;;;;;;;;4443642;32;20201;-66
2021/04/21 13:49:43;;;;;;;3.90;2.00;;;;;;;;;;4443274;32;20348;-66
2021/04/21 13:52:08;;;;;;;2.72;2.37;;;;;;;;;;4447861;32;20299;-67
2021/04/21 13:54:34;;;;;;;3.55;1.85;;;;;;;;;;4435752;32;20299;-64
2021/04/21 13:56:59;;;;;;;2.97;1.80;;;;;;;;;;4438863;32;20303;-67
2021/04/21 13:59:25;;;;;;;2.10;1.90;;;;;;;;;;4450383;32;20368;-66
2021/04/21 14:01:51;;;;;;;1.30;1.20;;;;;;;;;;4443754;32;20668;-67
2021/04/21 14:04:16;;;;;;;2.33;1.60;;;;;;;;;;4438432;32;20259;-67
2021/04/21 14:06:42;;;;;;;6.32;5.00;;;;;;;;;;4443495;32;20819;-68
2021/04/21 14:09:07;;;;;;;3.97;2.97;;;;;;;;;;4440377;32;20221;-67
2021/04/21 14:11:39;;;;;;;5.95;4.32;;;;;;;;;;4443393;32;20704;-54
2021/04/21 14:14:05;;;;;;;3.40;2.20;;;;;;;;;;4447852;32;20305;-54
2021/04/21 14:16:30;;;;;;;5.12;3.05;;;;;;;;;;4438225;32;20774;-54
2021/04/21 14:18:56;;;;;;;3.15;2.40;;;;;;;;;;4448332;32;20307;-54
2021/04/21 14:21:21;;;;;;;3.72;2.80;;;;;;;;;;4446702;32;20284;-54
2021/04/21 14:23:47;;;;;;;1.75;1.65;;;;;;;;;;4441809;32;20228;-55
2021/04/21 14:26:12;;;;;;;3.70;2.17;;;;;;;;;;4445003;32;20736;-54
2021/04/21 14:28:39;;;;;;;3.40;2.20;;;;;;;;;;4443135;32;20331;-65
2021/04/21 14:31:05;;;;;;;3.33;1.98;;;;;;;;;;4443129;32;20229;-65
2021/04/21 14:33:30;;;;;;;3.50;2.58;;;;;;;;;;4444406;32;20294;-64
2021/04/21 14:35:56;;;;;;;4.68;2.80;;;;;;;;;;4441145;32;20282;-65
2021/04/21 14:38:23;;;;;;;2.15;1.60;;;;;;;;;;4442508;32;20291;-65
2021/04/21 14:40:48;;;;;;;5.87;2.75;;;;;;;;;;4442847;32;20637;-64
2021/04/21 14:43:14;;;;;;;2.60;1.60;;;;;;;;;;4442785;32;20301;-66
2021/04/21 14:45:39;;;;;;;4.03;2.97;;;;;;;;;;4442713;32;20664;-66
2021/04/21 14:48:06;;;;;;;6.25;2.90;;;;;;;;;;4442472;32;20343;-66
2021/04/21 14:50:31;;;;;;;5.80;3.60;;;;;;;;;;4446689;32;20262;-66
2021/04/21 14:52:58;;;;;;;6.82;3.22;;;;;;;;;;4438940;32;20303;-66
2021/04/21 14:55:24;;;;;;;8.40;3.05;;;;;;;;;;4441602;32;20303;-65
2021/04/21 14:57:49;;;;;;;4.43;3.28;;;;;;;;;;4441170;32;20690;-65
2021/04/21 15:00:15;;;;;;;3.00;2.25;;;;;;;;;;4442032;32;20507;-65
2021/04/21 15:02:41;;;;;;;3.33;2.72;;;;;;;;;;4444703;32;20344;-64
2021/04/21 15:05:07;;;;;;;4.12;2.35;;;;;;;;;;4438362;32;20644;-65
2021/04/21 15:07:33;;;;;;;3.97;3.25;;;;;;;;;;4441184;32;20283;-64
2021/04/21 15:09:59;;;;;;;8.57;2.80;;;;;;;;;;4438761;32;20251;-67
2021/04/21 15:12:24;;;;;;;6.82;5.05;;;;;;;;;;4441008;32;20283;-66
2021/04/21 15:14:51;;;;;;;7.15;2.35;;;;;;;;;;4442366;32;20296;-65
2021/04/21 15:17:18;;;;;;;4.70;2.75;;;;;;;;;;4443478;32;20568;-64